Time;durP1;ratioP1;P1;durP2;ratioP2;P2;SDS_P1;SDS_P2;PMS_P1;PMS_P2;Temp;Humidity;BMP_temperature;BMP_pressure;BME280_temperature;BME280_humidity;BME280_pressure;Samples;Min_cycle;Max_cycle;Signal;HPM_P1;HPM_P2
2023/12/21 00:01:40;;;;;;;24.02;4.40;;;8.80;99.90;;;;;;4994472;28;20453;-85
2023/12/21 00:04:06;;;;;;;22.65;4.07;;;8.80;99.90;;;;;;5009978;28;20549;-86
2023/12/21 00:06:32;;;;;;;18.48;4.47;;;8.80;99.90;;;;;;5009936;28;20052;-85
2023/12/21 00:08:58;;;;;;;14.25;4.25;;;8.80;99.90;;;;;;5011241;28;20046;-86
2023/12/21 00:11:23;;;;;;;21.77;4.13;;;8.80;99.90;;;;;;4998958;28;20093;-86
2023/12/21 00:13:49;;;;;;;28.25;5.10;;;8.80;99.90;;;;;;5010138;28;20049;-86
2023/12/21 00:16:16;;;;;;;20.00;3.95;;;9.20;99.90;;;;;;5010414;28;20053;-87
2023/12/21 00:18:42;;;;;;;20.00;3.53;;;8.90;99.90;;;;;;5010027;28;20084;-85
2023/12/21 00:21:08;;;;;;;23.70;4.05;;;9.00;99.90;;;;;;5009896;28;20458;-86
2023/12/21 00:23:34;;;;;;;21.55;3.30;;;8.80;99.90;;;;;;5009807;28;20409;-87
2023/12/21 00:26:00;;;;;;;14.95;3.53;;;9.70;99.90;;;;;;5004603;28;20053;-87
2023/12/21 00:28:25;;;;;;;18.77;3.83;;;8.90;99.90;;;;;;5009799;28;20041;-86
2023/12/21 00:30:51;;;;;;;23.25;4.25;;;8.80;99.90;;;;;;5000108;28;20050;-86
2023/12/21 00:33:17;;;;;;;20.17;3.80;;;8.90;99.90;;;;;;5000331;28;20115;-86
2023/12/21 00:35:42;;;;;;;18.88;4.25;;;8.90;99.90;;;;;;5006590;28;20049;-86
2023/12/21 00:38:08;;;;;;;17.70;4.32;;;8.90;99.90;;;;;;5008703;28;20112;-85
2023/12/21 00:40:34;;;;;;;19.95;4.78;;;8.90;99.90;;;;;;5005898;28;20224;-86
2023/12/21 00:43:00;;;;;;;24.10;4.38;;;9.70;99.90;;;;;;5009288;28;20548;-86
2023/12/21 00:45:26;;;;;;;17.45;4.20;;;9.00;99.90;;;;;;5000607;28;20132;-85
2023/12/21 00:47:52;;;;;;;18.75;3.83;;;8.90;99.90;;;;;;5009369;28;20078;-86
2023/12/21 00:50:17;;;;;;;18.45;3.78;;;8.90;99.90;;;;;;5009423;28;20050;-86
2023/12/21 00:52:43;;;;;;;13.30;4.03;;;8.90;99.90;;;;;;5009840;28;20056;-85
2023/12/21 00:55:09;;;;;;;22.42;3.85;;;9.00;99.90;;;;;;5003615;28;20117;-84
2023/12/21 00:57:35;;;;;;;18.25;4.65;;;9.00;99.90;;;;;;5015334;28;20416;-86
2023/12/21 01:00:00;;;;;;;25.02;4.57;;;9.20;99.90;;;;;;5009185;28;20060;-84
2023/12/21 01:02:26;;;;;;;22.45;4.05;;;9.00;99.90;;;;;;4990273;28;20054;-86
2023/12/21 01:04:52;;;;;;;22.10;4.25;;;9.00;99.90;;;;;;5005784;28;20052;-87
2023/12/21 01:07:17;;;;;;;20.45;3.67;;;8.90;99.90;;;;;;5019065;28;20489;-85
2023/12/21 01:09:43;;;;;;;20.77;4.18;;;9.20;99.90;;;;;;4995090;28;20502;-87
2023/12/21 01:12:09;;;;;;;25.40;4.63;;;9.00;99.90;;;;;;5005575;28;20401;-85
2023/12/21 01:14:35;;;;;;;12.32;3.97;;;8.90;99.90;;;;;;5009421;28;20081;-87
2023/12/21 01:17:00;;;;;;;20.25;3.92;;;8.90;99.90;;;;;;5009577;28;20054;-87
2023/12/21 01:19:26;;;;;;;21.13;4.32;;;8.90;99.90;;;;;;5003960;28;20117;-87
2023/12/21 01:21:52;;;;;;;18.90;3.97;;;8.90;99.90;;;;;;5009169;28;20459;-85
2023/12/21 01:24:18;;;;;;;19.63;4.05;;;8.90;99.90;;;;;;4993528;28;20047;-86
2023/12/21 01:26:44;;;;;;;17.77;4.38;;;8.90;99.90;;;;;;5005419;28;20474;-85
2023/12/21 01:29:09;;;;;;;16.23;4.05;;;8.90;99.90;;;;;;4983048;28;20085;-87
2023/12/21 01:31:35;;;;;;;17.00;4.05;;;8.90;99.90;;;;;;5008911;28;20056;-86
2023/12/21 01:34:01;;;;;;;19.70;4.75;;;8.90;99.90;;;;;;5010600;28;20580;-87
2023/12/21 01:36:28;;;;;;;16.48;3.63;;;8.80;99.90;;;;;;4993708;28;20409;-87
2023/12/21 01:38:54;;;;;;;15.23;4.05;;;8.90;99.90;;;;;;5006136;28;20140;-86
2023/12/21 01:41:20;;;;;;;18.15;4.70;;;8.90;99.90;;;;;;5000851;28;20085;-85
2023/12/21 01:43:45;;;;;;;17.88;4.63;;;8.90;99.90;;;;;;4992761;28;20358;-85
2023/12/21 01:46:11;;;;;;;19.13;3.80;;;8.90;99.90;;;;;;5000614;28;20046;-88
2023/12/21 01:48:37;;;;;;;23.58;4.50;;;8.90;99.90;;;;;;4995965;28;20409;-86
2023/12/21 01:51:04;;;;;;;16.23;4.35;;;9.00;99.90;;;;;;4998129;28;20037;-86
2023/12/21 01:53:30;;;;;;;20.85;3.88;;;8.90;99.90;;;;;;5012066;28;20049;-84
2023/12/21 01:55:56;;;;;;;24.08;4.55;;;8.90;99.90;;;;;;5011328;28;20053;-87
2023/12/21 01:58:23;;;;;;;20.50;4.13;;;8.90;99.90;;;;;;5010556;28;20053;-85
2023/12/21 02:00:49;;;;;;;16.40;5.15;;;8.90;99.90;;;;;;4996223;28;20108;-84
2023/12/21 02:03:16;;;;;;;15.30;3.72;;;8.90;99.90;;;;;;5012295;28;20595;-85
2023/12/21 02:05:42;;;;;;;12.50;4.03;;;8.90;99.90;;;;;;5011140;28;20099;-85
2023/12/21 02:08:08;;;;;;;15.85;4.32;;;8.90;99.90;;;;;;5012140;28;20132;-86
2023/12/21 02:10:35;;;;;;;16.38;4.32;;;8.90;99.90;;;;;;5010708;28;20049;-84
2023/12/21 02:13:00;;;;;;;15.30;3.60;;;8.90;99.90;;;;;;5011929;28;20077;-85
2023/12/21 02:15:26;;;;;;;19.35;4.18;;;9.10;99.90;;;;;;5011618;28;20053;-87
2023/12/21 02:17:54;;;;;;;18.45;4.30;;;8.90;99.90;;;;;;5011775;28;20042;-84
2023/12/21 02:20:20;;;;;;;14.60;3.72;;;9.30;99.90;;;;;;5001565;28;20433;-87
2023/12/21 02:22:48;;;;;;;14.90;4.68;;;9.60;99.90;;;;;;5003392;28;20049;-86
2023/12/21 02:25:14;;;;;;;16.17;3.72;;;8.90;99.90;;;;;;5006840;28;20069;-85
2023/12/21 02:27:39;;;;;;;19.63;4.18;;;8.90;99.90;;;;;;5009211;28;20042;-88
2023/12/21 02:30:06;;;;;;;17.33;3.83;;;8.90;99.90;;;;;;5011183;28;20046;-86
2023/12/21 02:32:32;;;;;;;16.42;3.92;;;8.90;99.90;;;;;;5011118;28;20421;-86
2023/12/21 02:34:57;;;;;;;22.77;5.22;;;8.90;99.90;;;;;;5004613;28;20144;-85
2023/12/21 02:37:23;;;;;;;16.77;4.90;;;9.00;99.90;;;;;;5011513;28;20564;-85
2023/12/21 02:39:49;;;;;;;11.93;3.85;;;8.90;99.90;;;;;;5011110;28;20053;-88
2023/12/21 02:42:15;;;;;;;17.15;4.65;;;8.90;99.90;;;;;;4999056;28;20415;-86
2023/12/21 02:44:40;;;;;;;17.30;4.57;;;8.90;99.90;;;;;;5000374;28;20054;-85
2023/12/21 02:47:06;;;;;;;20.55;4.45;;;8.90;99.90;;;;;;5017493;28;20506;-86
2023/12/21 02:49:31;;;;;;;17.48;4.10;;;9.00;99.90;;;;;;5012740;28;20046;-87
2023/12/21 02:51:57;;;;;;;17.20;4.75;;;9.00;99.90;;;;;;5010681;28;20046;-87
2023/12/21 02:54:23;;;;;;;13.52;3.70;;;9.00;99.90;;;;;;4992497;28;20465;-87
2023/12/21 02:56:48;;;;;;;17.98;4.32;;;8.90;99.90;;;;;;5011090;28;20459;-86
2023/12/21 02:59:14;;;;;;;12.20;4.03;;;8.90;99.90;;;;;;5010974;28;20045;-87
2023/12/21 03:01:43;;;;;;;20.48;4.75;;;8.90;99.90;;;;;;5010904;28;20049;-85
2023/12/21 03:04:10;;;;;;;19.88;4.40;;;8.90;99.90;;;;;;5011019;28;20045;-84
2023/12/21 03:06:36;;;;;;;19.30;4.90;;;8.90;99.90;;;;;;5012880;28;20053;-86
2023/12/21 03:09:02;;;;;;;17.95;4.57;;;9.00;99.90;;;;;;5010432;28;20054;-86
2023/12/21 03:11:27;;;;;;;19.73;4.80;;;8.90;99.90;;;;;;5006336;28;20053;-85
2023/12/21 03:13:53;;;;;;;17.90;4.97;;;9.00;99.90;;;;;;4991613;28;20042;-86
2023/12/21 03:16:19;;;;;;;14.88;4.40;;;9.00;99.90;;;;;;4991314;28;20050;-84
2023/12/21 03:18:46;;;;;;;13.43;4.88;;;9.00;99.90;;;;;;5001213;28;20049;-86
2023/12/21 03:21:12;;;;;;;21.08;4.68;;;8.90;99.90;;;;;;5001764;28;20092;-85
2023/12/21 03:23:40;;;;;;;14.65;4.53;;;9.20;99.90;;;;;;4987976;28;20053;-86
2023/12/21 03:26:07;;;;;;;13.68;3.88;;;9.00;99.90;;;;;;5010409;28;20112;-86
2023/12/21 03:28:33;;;;;;;13.68;4.18;;;9.00;99.90;;;;;;5010571;28;20494;-86
2023/12/21 03:31:00;;;;;;;16.90;3.92;;;8.90;99.90;;;;;;5010664;28;20046;-87
2023/12/21 03:33:26;;;;;;;14.25;4.07;;;8.90;99.90;;;;;;5010232;28;20140;-86
2023/12/21 03:35:51;;;;;;;13.63;3.97;;;9.00;99.90;;;;;;5007216;28;20173;-87
2023/12/21 03:38:17;;;;;;;8.50;3.65;;;9.50;99.90;;;;;;5010219;28;20512;-85
2023/12/21 03:40:43;;;;;;;14.10;3.85;;;8.90;99.90;;;;;;5009725;28;20045;-85
2023/12/21 03:43:09;;;;;;;14.75;3.80;;;8.90;99.90;;;;;;5009194;28;20104;-84
2023/12/21 03:45:39;;;;;;;13.48;3.78;;;8.90;99.90;;;;;;5006358;28;20493;-85
2023/12/21 03:48:07;;;;;;;11.85;3.65;;;9.10;99.90;;;;;;5010053;28;20081;-87
2023/12/21 03:50:33;;;;;;;12.90;3.72;;;8.90;99.90;;;;;;5010212;28;20041;-86
2023/12/21 03:52:59;;;;;;;12.30;3.78;;;9.00;99.90;;;;;;5010410;28;20417;-85
2023/12/21 03:55:24;;;;;;;13.88;3.67;;;9.00;99.90;;;;;;5002939;28;20057;-88
2023/12/21 03:57:50;;;;;;;13.40;3.85;;;8.90;99.90;;;;;;5011796;28;20046;-87
2023/12/21 04:00:19;;;;;;;11.90;4.75;;;8.90;99.90;;;;;;5010460;28;20640;-85
2023/12/21 04:02:46;;;;;;;15.20;4.25;;;8.90;99.90;;;;;;5009976;28;20068;-87
2023/12/21 04:05:11;;;;;;;12.57;3.80;;;8.90;99.90;;;;;;5003672;28;20065;-87
2023/12/21 04:07:37;;;;;;;19.92;4.43;;;8.90;99.90;;;;;;5007063;28;20073;-88
2023/12/21 04:10:03;;;;;;;11.20;4.13;;;8.90;99.90;;;;;;4995307;28;20034;-86
2023/12/21 04:12:29;;;;;;;12.10;3.80;;;8.90;99.90;;;;;;5009197;28;20045;-85
2023/12/21 04:14:54;;;;;;;11.23;3.42;;;9.00;99.90;;;;;;5007365;28;20052;-87
2023/12/21 04:17:20;;;;;;;14.40;4.40;;;9.00;99.90;;;;;;4992221;28;20057;-85
2023/12/21 04:19:46;;;;;;;11.63;3.72;;;9.10;99.90;;;;;;5009530;28;20126;-86
2023/12/21 04:22:11;;;;;;;13.43;3.38;;;9.10;99.90;;;;;;4990335;28;20052;-88
2023/12/21 04:24:37;;;;;;;12.00;3.42;;;8.90;99.90;;;;;;4998902;28;20052;-84
2023/12/21 04:27:03;;;;;;;13.85;4.18;;;8.90;99.90;;;;;;4999113;28;20042;-87
2023/12/21 04:29:29;;;;;;;10.65;3.60;;;8.90;99.90;;;;;;5009712;28;20125;-86
2023/12/21 04:31:54;;;;;;;13.40;3.25;;;9.10;99.90;;;;;;5009462;28;20148;-87
2023/12/21 04:34:20;;;;;;;10.70;3.03;;;9.00;99.90;;;;;;5004403;28;20120;-85
2023/12/21 04:36:46;;;;;;;14.65;3.63;;;9.00;99.90;;;;;;4992127;28;20409;-85
2023/12/21 04:39:12;;;;;;;11.23;2.90;;;8.90;99.90;;;;;;5009638;28;20054;-87
2023/12/21 04:41:38;;;;;;;18.02;4.43;;;9.00;99.90;;;;;;5009027;28;20052;-86
2023/12/21 04:44:05;;;;;;;13.98;3.40;;;9.60;99.90;;;;;;4996943;28;20050;-87
2023/12/21 04:46:31;;;;;;;10.75;3.03;;;9.00;99.90;;;;;;5009285;28;20050;-86
2023/12/21 04:48:56;;;;;;;12.13;3.22;;;9.00;99.90;;;;;;5009397;28;20056;-85
2023/12/21 04:51:22;;;;;;;10.43;3.60;;;8.90;99.90;;;;;;4991714;28;20132;-85
2023/12/21 04:53:48;;;;;;;15.27;4.15;;;8.90;99.90;;;;;;5009398;28;20138;-86
2023/12/21 04:56:13;;;;;;;10.00;3.80;;;9.00;99.90;;;;;;5009065;28;20553;-85
2023/12/21 04:58:42;;;;;;;13.70;3.72;;;9.20;99.90;;;;;;5017253;28;20088;-84
2023/12/21 05:01:08;;;;;;;16.95;3.83;;;8.90;99.90;;;;;;5000929;28;20050;-86
2023/12/21 05:03:34;;;;;;;12.25;3.30;;;9.00;99.90;;;;;;4977140;28;20037;-87
2023/12/21 05:06:01;;;;;;;12.93;4.57;;;9.00;99.90;;;;;;5010005;28;20087;-84
2023/12/21 05:08:26;;;;;;;12.18;3.33;;;9.00;99.90;;;;;;5017249;28;20054;-87
2023/12/21 05:10:52;;;;;;;11.90;3.70;;;9.00;99.90;;;;;;5002149;28;20057;-86
2023/12/21 05:13:18;;;;;;;12.05;3.72;;;9.00;99.90;;;;;;5008866;28;20046;-87
2023/12/21 05:15:44;;;;;;;10.20;3.33;;;9.20;99.90;;;;;;4992680;28;20057;-87
2023/12/21 05:18:13;;;;;;;11.60;3.35;;;9.00;99.90;;;;;;5005739;28;20425;-84
2023/12/21 05:20:38;;;;;;;14.73;3.80;;;8.90;99.90;;;;;;5006312;28;20052;-84
2023/12/21 05:23:04;;;;;;;15.88;4.18;;;9.70;99.90;;;;;;4998265;28;20045;-87
2023/12/21 05:25:30;;;;;;;15.05;3.80;;;9.00;99.90;;;;;;5008416;28;20038;-88
2023/12/21 05:27:56;;;;;;;12.15;3.42;;;9.00;99.90;;;;;;4986974;28;20137;-87
2023/12/21 05:30:21;;;;;;;15.25;4.25;;;9.00;99.90;;;;;;5003065;28;20409;-88
2023/12/21 05:32:47;;;;;;;18.85;4.35;;;9.00;99.90;;;;;;5008355;28;20058;-85
2023/12/21 05:35:13;;;;;;;12.93;3.53;;;8.90;99.90;;;;;;5008366;28;20054;-86
2023/12/21 05:37:39;;;;;;;12.35;3.05;;;9.00;99.90;;;;;;5012049;28;20041;-86
2023/12/21 05:40:06;;;;;;;15.07;3.50;;;9.00;99.90;;;;;;5012806;28;20520;-86
2023/12/21 05:42:32;;;;;;;15.63;3.65;;;9.00;99.90;;;;;;5012370;28;20476;-87
2023/12/21 05:44:58;;;;;;;17.23;3.35;;;9.10;99.90;;;;;;5010794;28;20054;-88
2023/12/21 05:47:24;;;;;;;15.82;3.40;;;9.00;99.90;;;;;;5011470;28;20053;-86
2023/12/21 05:49:49;;;;;;;20.63;3.85;;;9.10;99.90;;;;;;5011952;28;20042;-87
2023/12/21 05:52:15;;;;;;;14.98;3.17;;;9.10;99.90;;;;;;5011391;28;20046;-86
2023/12/21 05:54:41;;;;;;;16.17;4.25;;;9.10;99.90;;;;;;5012246;28;20042;-87
2023/12/21 05:57:08;;;;;;;11.80;3.20;;;9.10;99.90;;;;;;5005687;28;20136;-85
2023/12/21 05:59:34;;;;;;;9.90;3.13;;;9.00;99.90;;;;;;5009574;28;20049;-86
2023/12/21 06:01:59;;;;;;;17.27;3.17;;;9.00;99.90;;;;;;5011571;28;20050;-85
2023/12/21 06:04:25;;;;;;;17.40;3.53;;;9.00;99.90;;;;;;5001745;28;20042;-86
2023/12/21 06:06:50;;;;;;;11.55;3.05;;;9.00;99.90;;;;;;5013976;28;20049;-88
2023/12/21 06:09:16;;;;;;;11.55;2.85;;;9.10;99.90;;;;;;5005539;28;20540;-85
2023/12/21 06:11:42;;;;;;;18.83;3.60;;;9.20;99.90;;;;;;5009540;28;20041;-86
2023/12/21 06:14:07;;;;;;;12.57;2.45;;;9.10;99.90;;;;;;4983496;28;20073;-85
2023/12/21 06:16:33;;;;;;;11.50;3.05;;;9.30;99.90;;;;;;4993224;28;20404;-86
2023/12/21 06:19:09;;;;;;;12.88;2.70;;;9.20;99.90;;;;;;5006385;28;20129;-86
2023/12/21 06:21:37;;;;;;;11.70;3.30;;;9.10;99.90;;;;;;5013446;28;20067;-87
2023/12/21 06:24:03;;;;;;;13.55;3.88;;;9.10;99.90;;;;;;5013370;28;20699;-86
2023/12/21 06:26:28;;;;;;;13.05;3.00;;;9.10;99.90;;;;;;5012022;28;20099;-87
2023/12/21 06:28:54;;;;;;;12.52;2.60;;;9.10;99.90;;;;;;5011453;28;20088;-88
2023/12/21 06:31:20;;;;;;;15.57;3.35;;;9.10;99.90;;;;;;4989070;28;20115;-89
2023/12/21 06:33:48;;;;;;;15.30;3.08;;;9.20;99.90;;;;;;5009066;28;20061;-86
2023/12/21 06:36:14;;;;;;;13.02;2.60;;;9.10;99.90;;;;;;4983190;28;20049;-88
2023/12/21 06:38:40;;;;;;;10.88;2.90;;;9.10;99.90;;;;;;5012719;28;20081;-88
2023/12/21 06:41:06;;;;;;;8.25;2.42;;;9.20;99.90;;;;;;5004475;28;20082;-85
2023/12/21 06:43:31;;;;;;;12.25;3.45;;;9.70;99.90;;;;;;4988054;28;20055;-88
2023/12/21 06:45:57;;;;;;;8.23;2.30;;;9.10;99.90;;;;;;4996549;28;20038;-87
2023/12/21 06:48:23;;;;;;;13.68;2.67;;;9.30;99.90;;;;;;5007571;28;20050;-88
2023/12/21 06:50:49;;;;;;;10.32;2.88;;;9.30;99.90;;;;;;5011591;28;20049;-87
2023/12/21 06:53:15;;;;;;;6.05;2.17;;;9.20;99.90;;;;;;5011795;28;20050;-87
2023/12/21 06:55:44;;;;;;;10.68;3.35;;;9.20;99.90;;;;;;5010089;28;20088;-86
2023/12/21 06:58:10;;;;;;;6.00;1.88;;;9.30;99.90;;;;;;5013350;28;20045;-87
2023/12/21 07:00:36;;;;;;;10.25;2.30;;;9.20;99.90;;;;;;5012449;28;20453;-88
2023/12/21 07:03:02;;;;;;;8.57;2.15;;;9.20;99.90;;;;;;5004970;28;20121;-91
2023/12/21 07:05:28;;;;;;;9.93;2.10;;;9.20;99.90;;;;;;4995654;28;20115;-89
2023/12/21 07:07:54;;;;;;;7.90;2.00;;;9.20;99.90;;;;;;5007637;28;20494;-89
2023/12/21 07:10:21;;;;;;;8.40;2.40;;;9.20;99.90;;;;;;5010505;28;20128;-89
2023/12/21 07:12:47;;;;;;;7.70;2.10;;;9.70;99.90;;;;;;5014355;28;20070;-91
2023/12/21 07:15:13;;;;;;;11.20;2.35;;;9.60;99.90;;;;;;4996735;28;20056;-88
2023/12/21 07:17:39;;;;;;;7.97;2.33;;;9.20;99.90;;;;;;5012400;28;20049;-94
2023/12/21 07:20:05;;;;;;;10.15;1.88;;;9.10;99.90;;;;;;5012772;28;20409;-88
2023/12/21 07:22:30;;;;;;;6.20;1.80;;;9.10;99.90;;;;;;5011696;28;20037;-86
2023/12/21 07:24:56;;;;;;;10.05;1.77;;;9.30;99.90;;;;;;5009663;28;20477;-86
2023/12/21 07:27:22;;;;;;;11.05;2.03;;;9.10;99.90;;;;;;5011037;28;20552;-85
2023/12/21 07:29:49;;;;;;;7.00;2.00;;;9.20;99.90;;;;;;5011088;28;20038;-87
2023/12/21 07:32:15;;;;;;;8.13;1.80;;;9.20;99.90;;;;;;4980210;28;20125;-86
2023/12/21 07:34:41;;;;;;;5.10;1.17;;;9.20;99.90;;;;;;5010023;28;20073;-84
2023/12/21 07:37:08;;;;;;;2.70;1.10;;;9.20;99.90;;;;;;5001079;28;20057;-87
2023/12/21 07:39:34;;;;;;;4.93;1.42;;;9.20;99.90;;;;;;5008777;28;20056;-85
2023/12/21 07:42:00;;;;;;;7.38;1.00;;;9.20;99.90;;;;;;4992733;28;20620;-86
2023/12/21 07:44:26;;;;;;;6.15;1.25;;;9.20;99.90;;;;;;4999979;28;20068;-87
2023/12/21 07:46:52;;;;;;;6.03;1.45;;;9.20;99.90;;;;;;5006555;28;20041;-87
2023/12/21 07:49:18;;;;;;;7.50;1.27;;;9.30;99.90;;;;;;5007402;28;20050;-86
2023/12/21 07:51:44;;;;;;;5.30;1.40;;;9.20;99.90;;;;;;5009373;28;20061;-85
2023/12/21 07:54:10;;;;;;;9.05;1.65;;;9.20;99.90;;;;;;4998151;28;20038;-85
2023/12/21 07:56:36;;;;;;;8.65;1.70;;;9.20;99.90;;;;;;5002344;28;20054;-86
2023/12/21 07:59:04;;;;;;;8.57;1.55;;;9.30;99.90;;;;;;5006001;28;20413;-85
2023/12/21 08:01:31;;;;;;;7.32;1.77;;;9.20;99.90;;;;;;5010245;28;20120;-87
2023/12/21 08:03:58;;;;;;;5.78;1.27;;;9.20;99.90;;;;;;5008489;28;20062;-84
2023/12/21 08:06:23;;;;;;;8.27;1.70;;;9.20;99.90;;;;;;5003348;28;20070;-85
2023/12/21 08:08:52;;;;;;;5.47;1.63;;;9.20;99.90;;;;;;5001445;28;20140;-87
2023/12/21 08:11:21;;;;;;;4.13;1.30;;;9.20;99.90;;;;;;5007065;28;20037;-85
2023/12/21 08:13:47;;;;;;;4.57;1.30;;;9.40;99.90;;;;;;5008969;28;20057;-82
2023/12/21 08:16:12;;;;;;;4.45;1.48;;;9.20;99.90;;;;;;5005116;28;20590;-82
2023/12/21 08:18:38;;;;;;;5.03;1.02;;;9.20;99.90;;;;;;5006188;28;20112;-81
2023/12/21 08:21:04;;;;;;;6.28;1.25;;;9.20;99.90;;;;;;5007544;28;20438;-80
2023/12/21 08:23:29;;;;;;;6.57;1.45;;;9.20;99.90;;;;;;5007913;28;20042;-80
2023/12/21 08:25:55;;;;;;;4.05;0.82;;;9.20;99.90;;;;;;5006594;28;20042;-81
2023/12/21 08:28:21;;;;;;;5.50;0.90;;;9.30;99.90;;;;;;5005257;28;20407;-80
2023/12/21 08:30:46;;;;;;;4.28;1.00;;;9.20;99.90;;;;;;5002227;28;20140;-79
2023/12/21 08:33:12;;;;;;;5.50;1.52;;;9.30;99.90;;;;;;4993948;28;20421;-80
2023/12/21 08:35:38;;;;;;;5.05;0.98;;;9.30;99.90;;;;;;5002433;28;20038;-81
2023/12/21 08:38:03;;;;;;;5.70;1.30;;;9.30;99.90;;;;;;4995427;28;20054;-78
2023/12/21 08:40:30;;;;;;;11.25;1.42;;;9.40;99.90;;;;;;5005203;28;20038;-80
2023/12/21 08:42:55;;;;;;;6.53;1.63;;;9.30;99.90;;;;;;5001529;28;20056;-78
2023/12/21 08:45:22;;;;;;;12.63;2.47;;;9.30;99.90;;;;;;5005303;28;20421;-81
2023/12/21 08:47:48;;;;;;;12.10;2.10;;;9.40;99.90;;;;;;5005450;28;20112;-79
2023/12/21 08:50:14;;;;;;;8.80;2.22;;;9.40;99.90;;;;;;5008311;28;20060;-80
2023/12/21 08:52:41;;;;;;;12.13;2.20;;;9.40;99.90;;;;;;5007486;28;20076;-79
2023/12/21 08:55:08;;;;;;;14.38;2.50;;;9.40;99.90;;;;;;5005602;28;20058;-79
2023/12/21 08:57:36;;;;;;;15.88;2.97;;;9.40;99.90;;;;;;5043997;28;20084;-80
2023/12/21 09:00:06;;;;;;;14.57;2.63;;;9.40;99.90;;;;;;5015036;28;20057;-81
2023/12/21 09:02:37;;;;;;;19.17;3.22;;;9.40;99.90;;;;;;5019447;28;20539;-79
2023/12/21 09:05:02;;;;;;;11.20;2.10;;;9.40;99.90;;;;;;5012788;28;20112;-80
2023/12/21 09:07:29;;;;;;;11.98;2.03;;;9.50;99.90;;;;;;5029179;28;20045;-79
2023/12/21 09:09:54;;;;;;;10.02;2.53;;;9.50;99.90;;;;;;5011834;28;20438;-76
2023/12/21 09:12:20;;;;;;;15.50;2.83;;;9.40;99.90;;;;;;5015419;28;20049;-78
2023/12/21 09:14:46;;;;;;;9.95;2.10;;;9.40;99.90;;;;;;5029155;28;20135;-78
2023/12/21 09:17:14;;;;;;;15.85;2.67;;;9.40;99.90;;;;;;5017062;28;20053;-80
2023/12/21 09:19:39;;;;;;;11.60;1.90;;;9.90;99.90;;;;;;5012971;28;20111;-79
2023/12/21 09:22:05;;;;;;;8.55;1.98;;;9.50;99.90;;;;;;5013873;28;20054;-81
2023/12/21 09:24:31;;;;;;;13.07;2.92;;;9.50;99.90;;;;;;5008461;28;20401;-80
2023/12/21 09:26:57;;;;;;;8.50;2.00;;;9.50;99.90;;;;;;4996428;28;20050;-79
2023/12/21 09:29:23;;;;;;;9.95;2.15;;;9.70;99.90;;;;;;5012562;28;20045;-80
2023/12/21 09:31:49;;;;;;;13.43;2.28;;;9.60;99.90;;;;;;5012644;28;20161;-79
2023/12/21 09:34:15;;;;;;;11.80;2.88;;;9.60;99.90;;;;;;4992952;28;20046;-79
2023/12/21 09:36:41;;;;;;;18.08;2.20;;;9.60;99.90;;;;;;4992862;28;20486;-80
2023/12/21 09:39:07;;;;;;;18.25;2.25;;;9.60;99.90;;;;;;5012110;28;20050;-80
2023/12/21 09:41:33;;;;;;;11.77;2.00;;;9.60;99.90;;;;;;5012340;28;20046;-80
2023/12/21 09:44:01;;;;;;;10.43;1.83;;;9.70;99.90;;;;;;5002377;28;20069;-80
2023/12/21 09:46:28;;;;;;;12.32;2.28;;;9.70;99.90;;;;;;5011119;28;20072;-80
2023/12/21 09:48:54;;;;;;;12.15;1.90;;;9.80;99.90;;;;;;5009081;28;20057;-80
2023/12/21 09:51:20;;;;;;;15.38;2.70;;;9.70;99.90;;;;;;5023334;28;20042;-79
2023/12/21 09:53:46;;;;;;;16.02;3.08;;;9.70;99.90;;;;;;5012596;28;20049;-78
2023/12/21 09:56:14;;;;;;;22.15;3.65;;;9.70;99.90;;;;;;5008931;28;20126;-80
2023/12/21 09:58:41;;;;;;;21.17;3.13;;;9.70;99.90;;;;;;5025491;28;20533;-80
2023/12/21 10:01:07;;;;;;;18.30;3.17;;;9.70;99.90;;;;;;5012155;28;20062;-81
2023/12/21 10:03:33;;;;;;;14.88;2.60;;;9.80;99.90;;;;;;5011931;28;20049;-78
2023/12/21 10:06:00;;;;;;;21.55;2.78;;;9.80;99.90;;;;;;5011945;28;20065;-81
2023/12/21 10:08:26;;;;;;;16.63;2.58;;;9.80;99.90;;;;;;5011866;28;20041;-80
2023/12/21 10:10:52;;;;;;;11.52;2.22;;;9.80;99.90;;;;;;5009388;28;20053;-80
2023/12/21 10:13:17;;;;;;;15.90;2.35;;;9.90;99.90;;;;;;5001831;28;20037;-80
2023/12/21 10:15:46;;;;;;;11.23;2.58;;;9.80;99.90;;;;;;5011354;28;20482;-80
2023/12/21 10:18:11;;;;;;;17.30;2.30;;;9.90;99.90;;;;;;5012119;28;20419;-80
2023/12/21 10:20:38;;;;;;;14.98;2.13;;;10.00;99.90;;;;;;4995126;28;20460;-80
2023/12/21 10:23:04;;;;;;;15.45;2.03;;;9.90;99.90;;;;;;4995478;28;20532;-80
2023/12/21 10:25:29;;;;;;;15.00;2.75;;;9.90;99.90;;;;;;5011990;28;20050;-80
2023/12/21 10:27:56;;;;;;;15.52;3.17;;;10.30;99.90;;;;;;5008498;28;20052;-79
2023/12/21 10:30:25;;;;;;;17.63;3.08;;;9.90;99.90;;;;;;5011708;28;20061;-81
2023/12/21 10:32:52;;;;;;;12.70;2.35;;;9.90;99.90;;;;;;5011643;28;20085;-81
2023/12/21 10:35:18;;;;;;;20.20;3.08;;;9.90;99.90;;;;;;4996914;28;20041;-80
2023/12/21 10:37:46;;;;;;;12.40;2.65;;;9.90;99.90;;;;;;5010777;28;20056;-86
2023/12/21 10:40:14;;;;;;;17.98;2.92;;;9.90;99.90;;;;;;4995246;28;20046;-80
2023/12/21 10:42:45;;;;;;;17.65;3.45;;;10.00;99.90;;;;;;5011814;28;20473;-84
2023/12/21 10:45:13;;;;;;;22.92;3.17;;;10.00;99.90;;;;;;5011668;28;20057;-81
2023/12/21 10:47:45;;;;;;;15.00;2.40;;;10.00;99.90;;;;;;5010776;28;20489;-80
2023/12/21 10:50:12;;;;;;;14.90;2.33;;;10.00;99.90;;;;;;5011627;28;20061;-81
2023/12/21 10:52:40;;;;;;;14.85;2.88;;;10.00;99.90;;;;;;5010941;28;20448;-83
2023/12/21 10:55:10;;;;;;;16.42;2.80;;;10.00;99.90;;;;;;5007888;28;20046;-83
2023/12/21 10:57:38;;;;;;;18.50;2.83;;;10.00;99.90;;;;;;5010861;28;20042;-83
2023/12/21 11:00:08;;;;;;;15.35;2.42;;;10.10;99.90;;;;;;5006078;28;20053;-82
2023/12/21 11:02:34;;;;;;;23.73;3.63;;;10.10;99.90;;;;;;5003643;28;20045;-82
2023/12/21 11:05:00;;;;;;;14.70;2.40;;;10.20;99.90;;;;;;5007411;28;20050;-82
2023/12/21 11:07:26;;;;;;;12.75;2.33;;;10.20;99.90;;;;;;5009814;28;20512;-83
2023/12/21 11:09:52;;;;;;;15.30;3.25;;;10.20;99.90;;;;;;4995144;28;20061;-79
2023/12/21 11:12:17;;;;;;;17.95;2.90;;;10.20;99.90;;;;;;5005086;28;20539;-80
2023/12/21 11:14:43;;;;;;;20.58;4.18;;;10.20;99.90;;;;;;5005382;28;20053;-81
2023/12/21 11:17:11;;;;;;;15.23;3.10;;;10.20;99.90;;;;;;4999715;28;20552;-82
2023/12/21 11:19:39;;;;;;;15.75;2.47;;;10.20;99.90;;;;;;4989293;28;20046;-82
2023/12/21 11:22:06;;;;;;;22.50;4.13;;;10.20;99.90;;;;;;5004433;28;20061;-81
2023/12/21 11:24:32;;;;;;;12.82;2.42;;;10.20;99.90;;;;;;4996420;28;20061;-81
2023/12/21 11:26:59;;;;;;;12.07;3.00;;;10.20;99.90;;;;;;5006949;28;20038;-82
2023/12/21 11:29:27;;;;;;;12.70;2.40;;;10.30;99.90;;;;;;5001761;28;20057;-79
2023/12/21 11:31:54;;;;;;;15.27;2.72;;;10.40;99.90;;;;;;5000163;28;20544;-81
2023/12/21 11:34:41;;;;;;;21.33;3.65;;;10.30;99.90;;;;;;4999982;28;20133;-82
2023/12/21 11:37:25;;;;;;;19.10;3.00;;;10.30;99.90;;;;;;5006181;28;20088;-83
2023/12/21 11:39:53;;;;;;;18.90;3.10;;;10.30;99.90;;;;;;5005009;28;20119;-82
2023/12/21 11:42:32;;;;;;;16.80;2.72;;;10.40;99.90;;;;;;4999836;28;20069;-82
2023/12/21 11:45:07;;;;;;;23.40;3.58;;;10.30;99.90;;;;;;5003367;28;20064;-80
2023/12/21 11:47:34;;;;;;;15.02;2.92;;;10.30;99.90;;;;;;5003693;28;20046;-82
2023/12/21 11:50:07;;;;;;;19.23;3.10;;;10.30;99.90;;;;;;5004394;28;20510;-83
2023/12/21 11:52:33;;;;;;;19.80;3.97;;;10.30;99.90;;;;;;5007658;28;20054;-82
2023/12/21 11:55:00;;;;;;;20.58;3.33;;;10.40;99.90;;;;;;5013182;28;20323;-82
2023/12/21 11:57:29;;;;;;;17.50;3.72;;;10.50;99.90;;;;;;4999722;28;20049;-82
2023/12/21 12:00:16;;;;;;;19.02;3.17;;;10.40;99.90;;;;;;5004728;28;20406;-81
2023/12/21 12:02:46;;;;;;;22.30;3.47;;;10.40;99.90;;;;;;5006307;28;20569;-83
2023/12/21 12:05:20;;;;;;;18.45;3.47;;;10.40;99.90;;;;;;4980478;28;20085;-83
2023/12/21 12:07:49;;;;;;;27.25;4.10;;;10.40;99.90;;;;;;4991371;28;20083;-83
2023/12/21 12:10:17;;;;;;;13.80;2.03;;;10.40;99.90;;;;;;5004693;28;20054;-83
2023/12/21 12:12:46;;;;;;;25.52;3.92;;;10.40;99.90;;;;;;5001198;28;20109;-82
2023/12/21 12:15:12;;;;;;;15.38;3.03;;;10.40;99.90;;;;;;5004803;28;20042;-83
2023/12/21 12:17:41;;;;;;;22.98;3.38;;;10.40;99.90;;;;;;5004384;28;20035;-83
2023/12/21 12:20:11;;;;;;;13.77;2.60;;;10.40;99.90;;;;;;5000044;28;20054;-83
2023/12/21 12:22:37;;;;;;;18.92;3.90;;;10.40;99.90;;;;;;5008495;28;20188;-82
2023/12/21 12:25:06;;;;;;;15.43;3.97;;;10.50;99.90;;;;;;5005843;28;20125;-82
2023/12/21 12:27:32;;;;;;;17.30;3.25;;;10.40;99.90;;;;;;4996617;28;20133;-83
2023/12/21 12:29:58;;;;;;;21.38;3.63;;;10.40;99.90;;;;;;5005973;28;20088;-82
2023/12/21 12:32:25;;;;;;;22.67;3.03;;;10.50;99.90;;;;;;4997429;28;20129;-83
2023/12/21 12:34:51;;;;;;;22.20;3.20;;;10.50;99.90;;;;;;5005257;28;20046;-83
2023/12/21 12:37:18;;;;;;;14.70;3.70;;;10.50;99.90;;;;;;5004534;28;20045;-83
2023/12/21 12:39:48;;;;;;;19.30;3.17;;;10.50;99.90;;;;;;5000918;28;20112;-81
2023/12/21 12:42:15;;;;;;;18.67;3.20;;;10.50;99.90;;;;;;5008504;28;20439;-83